Flight Track Log - Related Links

Times and Time Zones

All times are in EDT time to prevent confusion due to time zone crossing. See the PDT4140 flight status page for this flight to view local times or setup timezone preferences in your user account.

Time Position Orientation Groundspeed Altitude Reporting Facility
EDT Latitude Longitude Course Direction KTS MPH feet Rate Location/Type
Sun 01:27:09 PM 39.8833 -75.2000 311° West 127 146 800  Level Philadelphia TRACON
Sun 01:28:33 PM 39.9333 -75.1667 27° Northeast 156 180 2,700 1,429 Climbing Philadelphia TRACON
Sun 01:29:00 PM 40.0476 -75.3976 323° Northwest  Level FlightAware Approximate
Sun 01:29:15 PM 39.9500 -75.1333 57° Northeast 155 178 3,800  Level Philadelphia TRACON
Sun 01:30:00 PM 40.1084 -75.4501 303° West  Level FlightAware Approximate
Sun 01:30:33 PM 40.0000 -75.1500 346° North 192 221 5,400  Level Philadelphia TRACON
Sun 01:31:00 PM 40.1674 -75.5012 311° West  Level FlightAware Approximate
Sun 01:31:33 PM 40.0333 -75.2000 311° West 190 219 6,500  Level Philadelphia TRACON
Sun 01:32:00 PM 40.2224 -75.5586 311° West  Level FlightAware Approximate
Sun 01:32:15 PM 40.0667 -75.2333 323° Northwest 198 228 7,300  Level Philadelphia TRACON
Sun 01:33:15 PM 40.0833 -75.3000 288° West 200 230 8,500 596 Climbing Philadelphia TRACON
Sun 01:35:06 PM 40.1469 -75.4225 304° West 226 260 9,000 174 Climbing New York Center
Sun 01:36:07 PM 40.1817 -75.4900 304° West 245 282 9,000  Level New York Center
Sun 01:37:07 PM 40.2306 -75.5694 309° West 250 288 9,000 203 Level New York Center
Sun 01:38:05 PM 40.2758 -75.6381 311° West 255 293 9,400 908 Climbing New York Center
Sun 01:39:06 PM 40.3111 -75.6922 311° West 235 270 10,800 1,091 Climbing New York Center
Sun 01:40:06 PM 40.3481 -75.7519 309° West 215 247 11,600 595 Climbing New York Center
Sun 01:41:07 PM 40.3867 -75.8228 306° West 214 246 12,000 197 Climbing New York Center
Sun 01:42:08 PM 40.4319 -75.8889 312° West 232 267 12,000  Level New York Center
Sun 01:43:06 PM 40.4811 -75.9553 314° West 251 289 12,000  Level New York Center
Sun 01:44:06 PM 40.5242 -76.0186 312° West 251 289 12,000  Level New York Center
Sun 01:45:06 PM 40.5778 -76.0803 319° Northwest 251 289 12,000  Level New York Center
Sun 01:46:07 PM 40.6475 -76.0556 15° North 216 249 12,000  Level New York Center
Sun 01:47:07 PM 40.7153 -76.0306 16° North 226 260 12,000 -51 Level New York Center
Sun 01:48:05 PM 40.7792 -75.9997 20° North 239 275 11,900 -353 Descending New York Center
Sun 01:49:06 PM 40.8369 -75.9658 24° Northeast 246 283 11,300 -590 Descending New York Center
Sun 01:50:07 PM 40.9050 -75.9353 19° North 254 292 10,700 -942 Descending New York Center
Sun 01:51:07 PM 40.9792 -75.9053 17° North 249 287 9,400 -1,600 Descending New York Center
Sun 01:52:07 PM 41.0408 -75.8742 21° North 243 280 7,500 -1,729 Descending New York Center
Sun 01:53:05 PM 41.1044 -75.8542 13° North 236 272 6,000 -1,373 Descending New York Center
Sun 01:54:05 PM 41.1592 -75.8361 14° North 218 251 4,800 -1,091 Descending New York Center
Sun 01:55:06 PM 41.2033 -75.8258 10° North 187 215 3,800 -893 Descending New York Center
Sun 01:56:06 PM 41.2483 -75.8014 22° Northeast 171 197 3,000 -700 Descending New York Center
Sun 01:57:06 PM 41.2850 -75.7711 32° Northeast 151 174 2,400 -793 Descending New York Center
Sun 01:58:07 PM 41.3108 -75.7481 34° Northeast 133 153 1,400 -694 Descending New York Center
Sun 01:59:07 PM 41.3389 -75.7253 31° Northeast 125 144 1,000 -400 Descending New York Center

Login

Don't have an account? Register now (free) for customized features, flight alerts, and more!